Time;durP1;ratioP1;P1;durP2;ratioP2;P2;SDS_P1;SDS_P2;PMS_P1;PMS_P2;Temp;Humidity;BMP_temperature;BMP_pressure;BME280_temperature;BME280_humidity;BME280_pressure;Samples;Min_cycle;Max_cycle;Signal;HPM_P1;HPM_P2
2023/03/29 00:03:46;;;;;;;4.40;1.40;;;;;;;2.65;100.00;98733.69;14802172;19;10001005;-75
2023/03/29 00:09:11;;;;;;;4.78;1.33;;;;;;;2.66;100.00;98722.09;15291877;19;20014;-76
2023/03/29 00:14:36;;;;;;;2.28;1.20;;;;;;;2.63;100.00;98725.00;15289021;19;20021;-77
2023/03/29 00:20:04;;;;;;;3.72;1.48;;;;;;;2.58;100.00;98706.69;15288494;19;20027;-77
2023/03/29 00:25:28;;;;;;;2.70;1.10;;;;;;;2.58;100.00;98711.16;15296991;19;20473;-75
2023/03/29 00:30:53;;;;;;;2.17;1.25;;;;;;;2.56;100.00;98715.72;15344921;19;20019;-77
2023/03/29 00:36:23;;;;;;;2.80;1.20;;;;;;;2.60;100.00;98703.91;15295417;19;20533;-77
2023/03/29 00:41:48;;;;;;;3.27;1.20;;;;;;;2.70;100.00;98699.66;15291294;19;20018;-77
2023/03/29 00:47:13;;;;;;;3.78;1.02;;;;;;;2.78;100.00;98697.34;15295215;19;20027;-77
2023/03/29 00:52:43;;;;;;;2.47;1.00;;;;;;;2.81;100.00;98692.75;15292636;19;20018;-76
2023/03/29 00:58:08;;;;;;;3.40;1.10;;;;;;;2.84;100.00;98695.22;15292433;19;20026;-77
2023/03/29 01:03:44;;;;;;;3.45;1.20;;;;;;;2.85;100.00;98686.28;15291135;19;20013;-77
2023/03/29 01:09:16;;;;;;;2.95;1.20;;;;;;;2.86;100.00;98686.16;15291119;19;20082;-77
2023/03/29 01:14:47;;;;;;;3.60;1.20;;;;;;;2.87;100.00;98671.91;15290444;19;20512;-77
2023/03/29 01:20:18;;;;;;;2.38;1.10;;;;;;;2.88;100.00;98662.97;15292325;19;21070;-77
2023/03/29 01:26:01;;;;;;;3.20;1.30;;;;;;;2.88;100.00;98640.84;15291600;19;20010;-76
2023/03/29 01:31:34;;;;;;;2.35;1.08;;;;;;;2.86;100.00;98637.44;15285892;19;20039;-77
2023/03/29 01:37:03;;;;;;;3.95;1.30;;;;;;;2.86;100.00;98616.13;15291902;19;20042;-76
2023/03/29 01:42:41;;;;;;;3.05;1.15;;;;;;;2.86;100.00;98605.50;15282858;19;20019;-77
2023/03/29 01:48:15;;;;;;;1.45;0.88;;;;;;;2.84;100.00;98605.59;15287011;19;20010;-76
2023/03/29 01:53:45;;;;;;;2.47;0.90;;;;;;;2.85;100.00;98609.13;15283272;19;19999;-77
2023/03/29 01:59:17;;;;;;;2.40;1.00;;;;;;;2.86;100.00;98586.88;15288103;19;20755;-76
2023/03/29 02:04:51;;;;;;;4.53;1.20;;;;;;;2.83;100.00;98585.25;15289376;19;20022;-76
2023/03/29 02:10:18;;;;;;;2.55;1.02;;;;;;;2.84;100.00;98580.81;15287298;19;20021;-77
2023/03/29 02:15:45;;;;;;;3.35;1.02;;;;;;;2.81;100.00;98573.91;15285571;19;20548;-77
2023/03/29 02:21:17;;;;;;;3.85;1.10;;;;;;;2.83;100.00;98560.47;15336840;19;20014;-76
2023/03/29 02:26:48;;;;;;;3.45;1.15;;;;;;;2.82;100.00;98566.75;15291696;19;20015;-77
2023/03/29 02:32:19;;;;;;;1.25;0.80;;;;;;;2.83;100.00;98565.78;15279752;19;20019;-77
2023/03/29 02:37:43;;;;;;;2.07;0.93;;;;;;;2.91;100.00;98547.47;15281628;19;20032;-77
2023/03/29 02:43:09;;;;;;;3.70;1.20;;;;;;;2.98;100.00;98548.75;15277689;19;20043;-77
2023/03/29 02:48:35;;;;;;;3.55;1.10;;;;;;;3.02;100.00;98544.03;15281122;19;20074;-77
2023/03/29 02:54:08;;;;;;;3.38;1.15;;;;;;;3.04;100.00;98542.97;15284452;19;20115;-77
2023/03/29 02:59:34;;;;;;;5.00;1.20;;;;;;;2.99;100.00;98545.13;15301523;19;20022;-78
2023/03/29 03:04:59;;;;;;;2.75;1.20;;;;;;;2.95;100.00;98532.13;15299664;19;20022;-77
2023/03/29 03:10:27;;;;;;;2.50;1.20;;;;;;;2.88;100.00;98521.94;15289549;19;20015;-77
2023/03/29 03:15:52;;;;;;;2.95;1.35;;;;;;;2.89;100.00;98522.75;15285457;19;20066;-75
2023/03/29 03:21:18;;;;;;;3.17;1.38;;;;;;;2.85;100.00;98515.97;15286597;19;20113;-75
2023/03/29 03:26:48;;;;;;;2.30;1.30;;;;;;;2.84;100.00;98508.94;15286639;19;20015;-75
2023/03/29 03:32:14;;;;;;;3.28;1.10;;;;;;;2.88;100.00;98505.13;15283281;19;20624;-76
2023/03/29 03:38:11;;;;;;;2.83;1.17;;;;;;;2.88;100.00;98516.59;15282397;19;20034;-75
2023/03/29 03:43:47;;;;;;;3.38;1.40;;;;;;;2.88;100.00;98521.09;15273930;19;20011;-76
2023/03/29 03:49:15;;;;;;;4.53;1.40;;;;;;;2.92;100.00;98514.56;15281735;19;20082;-75
2023/03/29 03:54:40;;;;;;;2.88;1.70;;;;;;;2.93;100.00;98519.81;15280107;19;20354;-76
2023/03/29 04:00:26;;;;;;;2.90;1.55;;;;;;;2.97;100.00;98517.75;15285732;19;20015;-76
2023/03/29 04:06:11;;;;;;;2.83;1.80;;;;;;;3.01;100.00;98516.56;15284121;19;20007;-77
2023/03/29 04:12:14;;;;;;;4.03;2.00;;;;;;;3.04;100.00;98519.00;15274047;19;20526;-75
2023/03/29 04:17:42;;;;;;;3.28;2.03;;;;;;;3.10;100.00;98514.22;15284631;19;20733;-75
2023/03/29 04:23:09;;;;;;;3.47;2.10;;;;;;;3.11;100.00;98511.44;15280207;19;20025;-75
2023/03/29 04:28:41;;;;;;;3.75;2.10;;;;;;;3.15;100.00;98512.03;15277415;19;20056;-75
2023/03/29 04:34:26;;;;;;;2.97;2.13;;;;;;;3.13;100.00;98504.19;15279962;19;20015;-77
2023/03/29 04:39:51;;;;;;;3.38;2.20;;;;;;;3.21;100.00;98495.66;15342496;19;20018;-77
2023/03/29 04:45:28;;;;;;;2.90;2.28;;;;;;;3.19;100.00;98514.38;15287785;19;20078;-75
2023/03/29 04:51:00;;;;;;;3.50;2.30;;;;;;;3.16;100.00;98514.63;15288403;19;20237;-78
2023/03/29 04:56:27;;;;;;;3.78;2.28;;;;;;;3.14;100.00;98502.34;15286638;19;20387;-77
2023/03/29 05:02:20;;;;;;;4.72;2.30;;;;;;;3.15;100.00;98485.44;15286047;19;20015;-76
2023/03/29 05:07:49;;;;;;;5.82;2.38;;;;;;;3.22;100.00;98492.84;15284248;19;20018;-77
2023/03/29 05:13:41;;;;;;;2.95;2.35;;;;;;;3.18;100.00;98491.38;15281541;19;20069;-76
2023/03/29 05:19:08;;;;;;;3.92;2.40;;;;;;;3.21;100.00;98485.00;15309685;19;20010;-75
2023/03/29 05:24:36;;;;;;;3.50;2.47;;;;;;;3.23;100.00;98488.41;15317371;19;20042;-74
2023/03/29 05:30:10;;;;;;;4.50;2.60;;;;;;;3.28;100.00;98486.22;15275320;19;20477;-76
2023/03/29 05:35:42;;;;;;;4.03;2.13;;;;;;;3.33;100.00;98478.75;15276305;19;20015;-77
2023/03/29 05:41:09;;;;;;;2.88;2.10;;;;;;;3.37;100.00;98479.38;15277098;19;20039;-76
2023/03/29 05:46:54;;;;;;;2.67;1.90;;;;;;;3.38;100.00;98473.94;15278829;19;20014;-75
2023/03/29 05:52:18;;;;;;;3.75;2.10;;;;;;;3.42;100.00;98465.72;15277926;19;20006;-76
2023/03/29 05:57:46;;;;;;;4.22;2.25;;;;;;;3.43;100.00;98465.59;15279865;19;20762;-77
2023/03/29 06:03:17;;;;;;;2.42;1.83;;;;;;;3.47;100.00;98468.91;15276970;19;20035;-76
2023/03/29 06:08:43;;;;;;;3.75;2.33;;;;;;;3.47;100.00;98463.56;15281907;19;20007;-78
2023/03/29 06:14:26;;;;;;;2.80;2.00;;;;;;;3.54;100.00;98470.94;15278468;19;20037;-75
2023/03/29 06:20:18;;;;;;;2.47;2.10;;;;;;;3.60;100.00;98458.16;15276756;19;20717;-78
2023/03/29 06:25:50;;;;;;;3.15;2.10;;;;;;;3.64;100.00;98462.28;15280022;19;20006;-76
2023/03/29 06:31:18;;;;;;;2.55;2.10;;;;;;;3.66;100.00;98469.19;15287659;19;20115;-77
2023/03/29 06:36:44;;;;;;;2.90;1.80;;;;;;;3.74;100.00;98462.41;15289241;19;20518;-77
2023/03/29 06:42:09;;;;;;;3.67;2.20;;;;;;;3.80;100.00;98469.97;15289164;19;20121;-76
2023/03/29 06:48:00;;;;;;;3.25;2.00;;;;;;;3.87;100.00;98470.34;15293280;19;20026;-76
2023/03/29 06:53:26;;;;;;;2.63;1.98;;;;;;;3.95;100.00;98475.94;15282689;19;20635;-77
2023/03/29 06:58:53;;;;;;;2.83;2.03;;;;;;;4.05;100.00;98476.09;15294183;19;20401;-76
2023/03/29 07:04:50;;;;;;;4.07;1.83;;;;;;;4.11;100.00;98467.59;15291963;19;20018;-76
2023/03/29 07:10:20;;;;;;;2.95;1.88;;;;;;;4.23;100.00;98471.97;15289836;19;20011;-75
2023/03/29 07:16:05;;;;;;;2.33;1.92;;;;;;;4.40;100.00;98472.47;15290234;19;20295;-76
2023/03/29 07:21:33;;;;;;;3.70;2.03;;;;;;;4.51;100.00;98475.16;15292827;19;20033;-76
2023/03/29 07:27:04;;;;;;;4.03;2.13;;;;;;;4.67;100.00;98477.44;15289005;19;20505;-75
2023/03/29 07:32:32;;;;;;;3.08;1.95;;;;;;;4.77;100.00;98470.38;15289351;19;20040;-75
2023/03/29 07:38:14;;;;;;;2.10;1.90;;;;;;;4.87;100.00;98473.19;15293925;19;20019;-76
2023/03/29 07:43:48;;;;;;;4.38;2.30;;;;;;;4.99;100.00;98473.16;15293403;19;20007;-76
2023/03/29 07:49:14;;;;;;;2.80;2.20;;;;;;;5.06;100.00;98469.00;15296837;19;20014;-76
2023/03/29 07:54:42;;;;;;;4.05;2.03;;;;;;;5.12;100.00;98471.16;15289495;19;20018;-77
2023/03/29 08:00:23;;;;;;;;;;;;;;;5.22;100.00;98469.47;15292978;19;20018;-76
2023/03/29 08:06:10;;;;;;;3.42;1.70;;;;;;;5.45;100.00;98472.06;15294192;19;19915;-77
2023/03/29 08:11:38;;;;;;;3.03;1.83;;;;;;;5.62;100.00;98449.25;15292548;19;20026;-76
2023/03/29 08:17:13;;;;;;;2.88;1.90;;;;;;;5.82;100.00;98447.53;15313089;19;20053;-77
2023/03/29 08:22:30;;;;;;;2.83;2.20;;;;;;;6.01;100.00;98443.34;15325267;19;20017;-75
2023/03/29 08:28:18;;;;;;;3.35;2.13;;;;;;;6.22;100.00;98431.75;15284079;19;20017;-77
2023/03/29 08:33:43;;;;;;;3.47;2.40;;;;;;;6.43;100.00;98434.41;15284628;19;20022;-76
2023/03/29 08:39:37;;;;;;;3.40;1.40;;;;;;;6.64;100.00;98423.66;15294890;19;20006;-74
2023/03/29 08:45:41;;;;;;;2.72;1.50;;;;;;;6.89;100.00;98426.78;15311200;19;20019;-74
2023/03/29 08:51:16;;;;;;;1.90;1.48;;;;;;;7.01;100.00;98422.16;15277361;19;20030;-74
2023/03/29 08:56:44;;;;;;;2.17;1.40;;;;;;;7.15;100.00;98407.50;15276579;19;20796;-76
2023/03/29 09:02:20;;;;;;;1.65;1.45;;;;;;;7.37;100.00;98396.50;15274358;19;20031;-74
2023/03/29 09:07:49;;;;;;;1.85;1.40;;;;;;;7.57;100.00;98404.56;15278864;19;20089;-74
2023/03/29 09:13:30;;;;;;;2.47;1.40;;;;;;;7.64;100.00;98405.69;15273134;19;20014;-73
2023/03/29 09:19:09;;;;;;;2.30;1.27;;;;;;;7.79;100.00;98408.75;15278548;19;20027;-74
2023/03/29 09:24:51;;;;;;;2.50;1.30;;;;;;;7.87;100.00;98410.72;15278740;19;20010;-74
2023/03/29 09:30:27;;;;;;;3.58;1.30;;;;;;;8.23;100.00;98410.91;15276919;19;20339;-75
2023/03/29 09:36:03;;;;;;;2.55;1.40;;;;;;;8.35;100.00;98399.97;15269974;19;20022;-75
2023/03/29 09:41:35;;;;;;;3.08;1.20;;;;;;;8.41;100.00;98408.28;15274169;19;20476;-76
2023/03/29 09:47:09;;;;;;;1.60;1.30;;;;;;;8.46;100.00;98405.16;15275872;19;20022;-74
2023/03/29 09:52:36;;;;;;;2.30;1.10;;;;;;;8.55;100.00;98396.25;15271619;19;20010;-73
2023/03/29 09:58:15;;;;;;;2.33;1.27;;;;;;;8.61;100.00;98382.22;15272071;19;20035;-72
2023/03/29 10:03:41;;;;;;;2.13;1.50;;;;;;;8.71;100.00;98389.38;15272912;19;20022;-73
2023/03/29 10:09:17;;;;;;;3.25;1.45;;;;;;;8.71;100.00;98375.94;15286159;19;20405;-73
2023/03/29 10:14:57;;;;;;;2.10;1.40;;;;;;;8.91;100.00;98376.69;15285912;19;20018;-73
2023/03/29 10:20:22;;;;;;;2.22;1.27;;;;;;;9.10;100.00;98384.59;15289157;19;20007;-73
2023/03/29 10:25:50;;;;;;;2.05;1.40;;;;;;;9.28;100.00;98372.16;15291744;19;20039;-73
2023/03/29 10:31:27;;;;;;;2.10;1.30;;;;;;;9.18;100.00;98362.31;15290036;19;20472;-75
2023/03/29 10:36:58;;;;;;;1.38;1.20;;;;;;;9.35;100.00;98362.50;15285220;19;20111;-75
2023/03/29 10:42:27;;;;;;;3.37;1.40;;;;;;;9.77;100.00;98363.63;15291099;19;20105;-75
2023/03/29 10:47:52;;;;;;;1.77;1.10;;;;;;;9.91;100.00;98340.69;15293370;19;20039;-75
2023/03/29 10:53:23;;;;;;;1.15;1.00;;;;;;;10.13;100.00;98334.75;15287019;19;20535;-75
2023/03/29 10:59:06;;;;;;;1.17;0.93;;;;;;;10.51;100.00;98317.44;15291971;19;20019;-75
2023/03/29 11:04:42;;;;;;;1.48;1.20;;;;;;;10.86;100.00;98316.34;15292499;19;20030;-76
2023/03/29 11:10:25;;;;;;;1.25;0.90;;;;;;;11.06;100.00;98318.72;15287838;19;20033;-75
2023/03/29 11:16:04;;;;;;;1.35;0.98;;;;;;;11.50;100.00;98321.09;15289438;19;20022;-76
2023/03/29 11:21:36;;;;;;;1.45;0.80;;;;;;;11.59;100.00;98323.78;15289803;19;20074;-75
2023/03/29 11:27:14;;;;;;;2.42;1.00;;;;;;;11.25;100.00;98317.53;15297142;19;20478;-74
2023/03/29 11:32:53;;;;;;;2.50;0.90;;;;;;;11.23;100.00;98320.41;15355290;19;20043;-74
2023/03/29 11:38:28;;;;;;;2.00;1.00;;;;;;;11.29;100.00;98324.31;15284001;19;20039;-74
2023/03/29 11:43:57;;;;;;;1.55;0.80;;;;;;;11.18;100.00;98314.69;15284961;19;20022;-75
2023/03/29 11:49:28;;;;;;;2.30;0.90;;;;;;;10.99;100.00;98317.69;15289931;19;20015;-74
2023/03/29 11:54:57;;;;;;;2.40;0.80;;;;;;;10.87;100.00;98315.31;15286223;19;20039;-75
2023/03/29 12:00:26;;;;;;;1.40;0.80;;;;;;;10.90;100.00;98295.28;15287880;19;20038;-74
2023/03/29 12:06:03;;;;;;;1.52;0.80;;;;;;;11.07;100.00;98286.22;15289380;19;20016;-74
2023/03/29 12:11:37;;;;;;;1.05;0.70;;;;;;;11.23;100.00;98281.84;15284761;19;20022;-75
2023/03/29 12:17:11;;;;;;;1.42;1.00;;;;;;;11.35;100.00;98279.63;15281051;19;20018;-73
2023/03/29 12:22:40;;;;;;;1.33;1.00;;;;;;;11.64;100.00;98262.06;15278817;19;20021;-74
2023/03/29 12:28:32;;;;;;;1.17;0.80;;;;;;;11.85;100.00;98259.63;15277198;19;20813;-73
2023/03/29 12:34:05;;;;;;;;;;;;;;;12.32;100.00;98254.41;15280688;19;20031;-75
2023/03/29 12:39:46;;;;;;;2.15;0.90;;;;;;;12.56;100.00;98245.31;15299675;19;20345;-74
2023/03/29 12:45:41;;;;;;;1.92;0.52;;;;;;;12.24;100.00;98257.13;15304196;19;20406;-75
2023/03/29 12:51:09;;;;;;;1.33;0.70;;;;;;;12.04;100.00;98254.03;15279402;19;20018;-74
2023/03/29 12:56:43;;;;;;;0.93;0.57;;;;;;;12.07;100.00;98259.94;15277125;19;20022;-73
2023/03/29 13:02:09;;;;;;;2.33;0.70;;;;;;;12.10;100.00;98240.69;15276023;19;20014;-74
2023/03/29 13:07:48;;;;;;;2.08;0.63;;;;;;;12.42;100.00;98237.97;15277209;19;20488;-74
2023/03/29 13:13:33;;;;;;;2.58;0.82;;;;;;;12.42;100.00;98227.16;15274038;19;20026;-74
2023/03/29 13:19:11;;;;;;;1.40;0.90;;;;;;;12.37;100.00;98227.69;15267016;19;20881;-74
2023/03/29 13:25:05;;;;;;;1.10;0.40;;;;;;;12.44;100.00;98217.03;15275092;19;20029;-75
2023/03/29 13:30:52;;;;;;;0.70;0.50;;;;;;;12.43;100.00;98218.91;15267782;19;20021;-76
2023/03/29 13:36:28;;;;;;;0.30;0.30;;;;;;;12.33;100.00;98224.50;15271267;19;20029;-75
2023/03/29 13:41:57;;;;;;;0.50;0.30;;;;;;;12.32;100.00;98233.63;15273614;19;20022;-74
2023/03/29 13:47:43;;;;;;;0.45;0.40;;;;;;;12.32;100.00;98232.81;15278996;19;20044;-75
2023/03/29 13:53:32;;;;;;;0.85;0.38;;;;;;;12.37;100.00;98232.28;15267903;19;20018;-75
2023/03/29 13:59:06;;;;;;;0.40;0.40;;;;;;;12.33;100.00;98229.09;15272675;19;20018;-74
2023/03/29 14:04:38;;;;;;;1.10;0.50;;;;;;;12.35;100.00;98237.84;15274049;19;20018;-75
2023/03/29 14:10:04;;;;;;;0.73;0.35;;;;;;;12.52;100.00;98244.00;15276304;19;20031;-74
2023/03/29 14:15:31;;;;;;;0.65;0.40;;;;;;;12.91;100.00;98237.63;15278141;19;20078;-74
2023/03/29 14:21:02;;;;;;;0.50;0.40;;;;;;;13.14;100.00;98236.78;15278335;19;20373;-77
2023/03/29 14:26:36;;;;;;;0.88;0.35;;;;;;;13.04;100.00;98233.50;15288198;19;20054;-74
2023/03/29 14:32:18;;;;;;;0.57;0.40;;;;;;;13.22;100.00;98220.50;15280687;19;20077;-73
2023/03/29 14:37:46;;;;;;;0.35;0.30;;;;;;;13.53;100.00;98214.13;15283978;19;20019;-76
2023/03/29 14:43:15;;;;;;;1.02;0.30;;;;;;;13.64;100.00;98218.22;15286018;19;20082;-75
2023/03/29 14:48:41;;;;;;;0.47;0.40;;;;;;;13.51;100.00;98213.47;15295510;19;20011;-73
2023/03/29 14:54:11;;;;;;;1.80;0.40;;;;;;;13.18;100.00;98211.06;15309261;19;20022;-75
2023/03/29 14:59:39;;;;;;;0.57;0.40;;;;;;;13.21;100.00;98218.81;15325069;19;20031;-75
2023/03/29 15:05:06;;;;;;;0.70;0.40;;;;;;;13.16;100.00;98213.09;15321253;19;20026;-75
2023/03/29 15:10:39;;;;;;;1.48;0.60;;;;;;;13.04;100.00;98209.16;15283833;19;20043;-73
2023/03/29 15:16:08;;;;;;;1.20;0.50;;;;;;;12.99;100.00;98211.56;15288137;19;20031;-74
2023/03/29 15:21:35;;;;;;;0.47;0.47;;;;;;;12.90;100.00;98205.38;15285785;19;20493;-75
2023/03/29 15:27:11;;;;;;;1.10;0.40;;;;;;;12.68;100.00;98196.25;15287126;19;20014;-75
2023/03/29 15:32:37;;;;;;;0.73;0.50;;;;;;;12.58;100.00;98194.63;15283874;19;20053;-75
2023/03/29 15:38:03;;;;;;;2.30;0.50;;;;;;;12.42;100.00;98182.09;15284199;19;20597;-75
2023/03/29 15:43:32;;;;;;;1.33;0.50;;;;;;;12.37;100.00;98186.34;15281371;19;20018;-75
2023/03/29 15:48:57;;;;;;;0.65;0.50;;;;;;;12.46;100.00;98172.63;15284671;19;20014;-75
2023/03/29 15:54:23;;;;;;;2.22;0.50;;;;;;;12.40;100.00;98180.59;15285523;19;20086;-75
2023/03/29 15:59:52;;;;;;;1.30;0.63;;;;;;;12.41;100.00;98171.44;15271164;19;20620;-74
2023/03/29 16:05:23;;;;;;;0.75;0.60;;;;;;;12.43;100.00;98172.97;15282442;19;20027;-74
2023/03/29 16:10:48;;;;;;;0.75;0.60;;;;;;;12.38;100.00;98161.03;15275481;19;20379;-76
2023/03/29 16:16:17;;;;;;;0.85;0.70;;;;;;;12.32;100.00;98160.69;15280345;19;20015;-75
2023/03/29 16:21:45;;;;;;;2.20;0.60;;;;;;;12.32;100.00;98152.59;15283181;19;20054;-76
2023/03/29 16:27:17;;;;;;;0.93;0.70;;;;;;;12.26;100.00;98157.88;15284740;19;20754;-74
2023/03/29 16:32:45;;;;;;;5.68;2.00;;;;;;;12.16;100.00;98161.66;15276671;19;20024;-74
2023/03/29 16:38:11;;;;;;;1.88;1.00;;;;;;;12.08;100.00;98156.31;15283902;19;20019;-75
2023/03/29 16:43:37;;;;;;;2.22;1.40;;;;;;;12.03;100.00;98161.38;15281649;19;20015;-73
2023/03/29 16:49:06;;;;;;;2.40;1.30;;;;;;;11.99;100.00;98162.78;15324160;19;20025;-73
2023/03/29 16:54:28;;;;;;;1.80;1.15;;;;;;;11.92;100.00;98157.22;15281839;19;20731;-74
2023/03/29 16:59:53;;;;;;;2.08;1.17;;;;;;;11.85;100.00;98150.81;15280544;19;20362;-75
2023/03/29 17:05:21;;;;;;;1.33;1.10;;;;;;;11.80;100.00;98137.03;15284067;19;20465;-74
2023/03/29 17:10:46;;;;;;;2.63;1.30;;;;;;;11.69;100.00;98133.69;15284180;19;20015;-74
2023/03/29 17:16:12;;;;;;;1.65;0.90;;;;;;;11.64;100.00;98129.84;15280816;19;20011;-74
2023/03/29 17:21:40;;;;;;;1.55;0.80;;;;;;;11.59;100.00;98134.91;15278848;19;20018;-74
2023/03/29 17:27:05;;;;;;;1.38;0.90;;;;;;;11.49;100.00;98143.19;15273142;19;20014;-73
2023/03/29 17:32:30;;;;;;;2.45;0.93;;;;;;;11.40;100.00;98143.25;15272130;19;20007;-74
2023/03/29 17:37:59;;;;;;;3.08;0.70;;;;;;;11.32;100.00;98139.72;15269492;19;20113;-72
2023/03/29 17:43:24;;;;;;;1.15;0.80;;;;;;;11.22;100.00;98138.06;15267732;19;20018;-73
2023/03/29 17:48:49;;;;;;;2.30;0.70;;;;;;;11.09;100.00;98145.84;15273492;19;20028;-74
2023/03/29 17:54:17;;;;;;;2.33;0.90;;;;;;;10.91;100.00;98154.97;15277622;19;20006;-76
2023/03/29 17:59:42;;;;;;;1.38;0.90;;;;;;;10.68;100.00;98145.91;15264199;19;20023;-75
2023/03/29 18:05:08;;;;;;;1.30;1.02;;;;;;;10.54;100.00;98147.38;15272195;19;20721;-74
2023/03/29 18:10:36;;;;;;;1.40;0.90;;;;;;;10.40;100.00;98147.06;15270772;19;20446;-75
2023/03/29 18:16:01;;;;;;;2.63;1.00;;;;;;;10.35;100.00;98151.25;15271723;19;20032;-75
2023/03/29 18:21:27;;;;;;;1.52;0.90;;;;;;;10.28;100.00;98146.50;15272995;19;20039;-72
2023/03/29 18:26:55;;;;;;;1.05;0.70;;;;;;;10.25;100.00;98144.16;15284276;19;20010;-75
2023/03/29 18:32:28;;;;;;;3.03;0.90;;;;;;;10.29;100.00;98142.81;15296014;19;20474;-72
2023/03/29 18:37:53;;;;;;;2.13;0.95;;;;;;;10.32;100.00;98144.31;15352778;19;20029;-73
2023/03/29 18:43:22;;;;;;;1.42;0.95;;;;;;;10.29;100.00;98140.13;15274660;19;20021;-74
2023/03/29 18:48:47;;;;;;;2.83;0.95;;;;;;;10.29;100.00;98139.28;15284197;19;20033;-74
2023/03/29 18:54:13;;;;;;;2.22;1.00;;;;;;;10.29;100.00;98134.72;15283648;19;20090;-72
2023/03/29 18:59:40;;;;;;;1.80;0.90;;;;;;;10.32;100.00;98133.53;15284974;19;20094;-74
2023/03/29 19:05:05;;;;;;;2.78;1.08;;;;;;;10.31;100.00;98131.88;15259776;19;20006;-74
2023/03/29 19:10:30;;;;;;;2.95;1.30;;;;;;;10.32;100.00;98128.16;15284736;19;20011;-75
2023/03/29 19:15:59;;;;;;;1.15;1.05;;;;;;;10.31;100.00;98121.09;15280629;19;20011;-75
2023/03/29 19:21:23;;;;;;;2.85;0.98;;;;;;;10.29;100.00;98117.75;15281082;19;20374;-75
2023/03/29 19:26:50;;;;;;;2.35;1.05;;;;;;;10.27;100.00;98109.00;15286527;19;20014;-75
2023/03/29 19:32:25;;;;;;;2.92;1.10;;;;;;;10.16;100.00;98102.94;15282928;19;20014;-75
2023/03/29 19:37:50;;;;;;;1.52;1.00;;;;;;;10.23;100.00;98102.25;15280363;19;20014;-73
2023/03/29 19:43:15;;;;;;;3.25;1.10;;;;;;;10.21;100.00;98104.25;15276543;19;20024;-73
2023/03/29 19:48:44;;;;;;;2.00;1.10;;;;;;;10.15;100.00;98098.56;15279456;19;20010;-74
2023/03/29 19:54:11;;;;;;;3.30;1.02;;;;;;;10.15;100.00;98095.88;15284455;19;20014;-73
2023/03/29 19:59:39;;;;;;;2.08;0.90;;;;;;;10.05;100.00;98086.25;15280040;19;20026;-76
2023/03/29 20:05:09;;;;;;;1.35;0.93;;;;;;;10.10;100.00;98076.66;15287070;19;20025;-75
2023/03/29 20:10:34;;;;;;;1.88;1.00;;;;;;;10.08;100.00;98075.97;15282521;19;20025;-74
2023/03/29 20:15:58;;;;;;;2.85;1.23;;;;;;;10.03;100.00;98070.28;15287029;19;20085;-74
2023/03/29 20:21:25;;;;;;;1.92;1.00;;;;;;;10.03;100.00;98067.59;15283892;19;20081;-74
2023/03/29 20:26:51;;;;;;;2.08;1.20;;;;;;;9.98;100.00;98064.53;15267203;19;20025;-73
2023/03/29 20:32:22;;;;;;;2.08;1.00;;;;;;;9.97;100.00;98047.56;15285888;19;20019;-74
2023/03/29 20:37:49;;;;;;;1.87;1.00;;;;;;;9.95;100.00;98051.41;15286162;19;20465;-73
2023/03/29 20:43:17;;;;;;;1.60;1.10;;;;;;;9.97;100.00;98042.19;15278722;19;20385;-74
2023/03/29 20:48:51;;;;;;;2.67;1.10;;;;;;;10.09;100.00;98031.91;15286311;19;20160;-74
2023/03/29 20:54:19;;;;;;;2.15;0.90;;;;;;;10.15;100.00;98023.19;15285193;19;20713;-74
2023/03/29 20:59:44;;;;;;;2.45;0.90;;;;;;;10.28;100.00;98019.13;15282755;19;20018;-74
2023/03/29 21:05:09;;;;;;;1.98;1.00;;;;;;;10.32;100.00;98009.69;15284591;19;20022;-75
2023/03/29 21:10:41;;;;;;;1.75;0.90;;;;;;;10.35;100.00;98009.34;15287864;19;20046;-75
2023/03/29 21:16:05;;;;;;;2.07;1.00;;;;;;;10.36;100.00;98010.19;15285932;19;20011;-74
2023/03/29 21:21:32;;;;;;;3.50;1.00;;;;;;;10.52;100.00;98006.69;15278866;19;20037;-74
2023/03/29 21:27:00;;;;;;;1.25;1.10;;;;;;;10.52;100.00;97995.91;15283980;19;20014;-74
2023/03/29 21:32:31;;;;;;;2.03;1.00;;;;;;;10.53;100.00;97993.03;15279398;19;20443;-74
2023/03/29 21:37:56;;;;;;;2.83;1.13;;;;;;;10.56;100.00;98008.88;15285579;19;20010;-73
2023/03/29 21:43:23;;;;;;;1.85;1.00;;;;;;;10.58;100.00;97996.06;15284827;19;20378;-74
2023/03/29 21:48:48;;;;;;;2.15;1.10;;;;;;;10.58;100.00;97989.81;15285372;19;20014;-74
2023/03/29 21:54:13;;;;;;;2.78;1.10;;;;;;;10.58;100.00;97987.13;15284546;19;20106;-74
2023/03/29 21:59:42;;;;;;;1.38;0.90;;;;;;;10.60;100.00;97977.03;15318963;19;20038;-74
2023/03/29 22:05:07;;;;;;;1.88;1.10;;;;;;;10.66;100.00;97976.31;15312363;19;20030;-74
2023/03/29 22:10:33;;;;;;;2.42;1.10;;;;;;;10.63;100.00;97968.63;15276182;19;20035;-74
2023/03/29 22:16:05;;;;;;;1.55;0.98;;;;;;;10.67;100.00;97969.09;15276032;19;20021;-75
2023/03/29 22:21:32;;;;;;;1.85;1.00;;;;;;;10.66;100.00;97951.25;15274222;19;20031;-75
2023/03/29 22:26:57;;;;;;;1.45;1.00;;;;;;;10.69;100.00;97946.34;15273679;19;20460;-74
2023/03/29 22:32:32;;;;;;;1.85;1.00;;;;;;;10.63;100.00;97944.38;15274640;19;20014;-75
2023/03/29 22:37:56;;;;;;;1.52;1.10;;;;;;;10.62;100.00;97930.03;15274721;19;20013;-74
2023/03/29 22:43:21;;;;;;;1.95;1.10;;;;;;;10.66;100.00;97927.00;15275789;19;20022;-74
2023/03/29 22:48:48;;;;;;;1.95;1.10;;;;;;;10.68;100.00;97928.50;15276931;19;20353;-74
2023/03/29 22:54:13;;;;;;;1.33;1.02;;;;;;;10.69;100.00;97923.97;15275610;19;20029;-74
2023/03/29 22:59:38;;;;;;;2.35;1.10;;;;;;;10.69;100.00;97897.84;15271060;19;20011;-73
2023/03/29 23:05:05;;;;;;;2.25;0.90;;;;;;;10.69;100.00;97889.78;15277889;19;20041;-74
2023/03/29 23:10:31;;;;;;;2.45;1.10;;;;;;;10.71;100.00;97895.84;15278231;19;20017;-74
2023/03/29 23:15:57;;;;;;;2.05;1.05;;;;;;;10.69;100.00;97880.88;15258757;19;20035;-74
2023/03/29 23:21:26;;;;;;;2.65;1.42;;;;;;;10.68;100.00;97884.56;15284715;19;20014;-75
2023/03/29 23:26:51;;;;;;;1.92;1.13;;;;;;;10.67;100.00;97867.56;15286905;19;20050;-73
2023/03/29 23:32:23;;;;;;;1.40;1.10;;;;;;;10.69;100.00;97868.22;15275878;19;20039;-73
2023/03/29 23:37:51;;;;;;;2.22;1.00;;;;;;;10.73;100.00;97866.00;15284936;19;20006;-73
2023/03/29 23:43:16;;;;;;;1.77;1.15;;;;;;;10.74;100.00;97857.78;14767952;19;10000406;-72
2023/03/29 23:48:44;;;;;;;2.97;1.25;;;;;;;10.74;100.00;97859.63;15279598;19;20029;-73
2023/03/29 23:54:14;;;;;;;1.88;1.00;;;;;;;10.72;100.00;97840.94;15281398;19;20014;-74
2023/03/29 23:59:39;;;;;;;5.10;1.20;;;;;;;10.69;100.00;97822.44;15278910;19;20010;-73
